Aviation

Metar/Speci

station

VRMH

METAR VRMH 240900Z 27018KT 9999 FEW018 FEW019CB BKN260 30/27 Q1006 CB W,NW=

22 minutes ago

VRMM

METAR VRMM 240900Z 26020KT 6000 -SHRA SCT016 FEW017CB OVC090 27/26 Q1007 CB NNE,S,SW TEMPO 4000 TSRA=

23 minutes ago

VRMK

SPECI VRMK 240920Z 25015G32KT 2000 SHRA SCT016 SCT017CB 29/25 Q1009 CB N,NE,SW,W,NW,OVHD=

43 seconds ago

VRMT

METAR VRMT 240900Z 23007KT 9999 FEW018TCU 32/26 Q1007=

20 minutes ago

VRMG

METAR VRMG 240800Z 19006KT 9999 FEW018TCU BKN260 32/26 Q1007 NOSIG=

22 minutes ago

Synop

station

43533

AAXX 24094 43533 41462 72718 10300 20271 30067 40069 70282 84948 333 59003 82818 82919 87276=

22 minutes ago

43555

AAXX 24094 43555 41456 82720 10268 20256 30075 40077 78082 8492/ 333 58008 83816 82917 88459=

23 minutes ago

43577

AAXX 24094 43577 42462 72308 10306 20259 30081 40083 82232 333 58009 82818 83363 87076=

23 minutes ago

43588

AAXX 24094 43588 42465 32307 10315 20257 30077 40078 82202 333 58005 82818=

20 minutes ago

43599

AAXX 24094 43599 42460 71806 10316 20261 30075 40077 82232 333 58001 82818 86076=

22 minutes ago

Tafs

station

VRMH

TAF VRMH 240500Z 2406/2512 26014KT 9999 SCT017TCU TEMPO 2406/2412 4000 SHRA FEW017CB=

4 hours ago

VRMM

TAF VRMM 240500Z 2406/2512 23011KT 9999 FEW017TCU OVC100 TEMPO 2406/2412 4000 TSRA SCT017CB=

4 hours ago

VRMK

TAF VRMK 240500Z 2406/2506 19008KT 9999 FEW018TCU TEMPO 2406/2412 FEW018CB=

4 hours ago

VRMT

TAF VRMT 240500Z 2406/2506 18009KT 9999 FEW018 TEMPO 2406/2412 FEW018CB=

4 hours ago

VRMG

TAF VRMG 240500Z 2406/2512 18007KT 9999 FEW018TCU TEMPO 2406/2412 FEW018CB=

4 hours ago

Sigmet

VRMM

VRMF SIGMET 2 VALID 240730/241130 VRMM- VRMF MALE FIR EMBD TS FCST WI N0729 E07359 - N0600 E07534 - N0207 E07232 - N0200 E07003 - N0603 E07000 - N0728 E07000 - N0729 E07359 TOP FL490 MOV E 03KT INTSF=

1 hour ago

Flight folders

No flight folder available at the moment.